sensor_id;sensor_type;location;lat;lon;timestamp;pressure;altitude;pressure_sealevel;temperature;humidity
64675;BME280;51090;51.512;11.332;2023-01-30T00:01:16;99376.44;;;3.34;100.00
64675;BME280;51090;51.512;11.332;2023-01-30T00:03:43;99366.53;;;3.37;100.00
64675;BME280;51090;51.512;11.332;2023-01-30T00:06:09;99363.06;;;3.37;100.00
64675;BME280;51090;51.512;11.332;2023-01-30T00:08:35;99347.06;;;3.40;100.00
64675;BME280;51090;51.512;11.332;2023-01-30T00:11:06;99348.88;;;3.39;100.00
64675;BME280;51090;51.512;11.332;2023-01-30T00:13:32;99351.59;;;3.38;100.00
64675;BME280;51090;51.512;11.332;2023-01-30T00:15:58;99350.50;;;3.40;100.00
64675;BME280;51090;51.512;11.332;2023-01-30T00:18:24;99357.13;;;3.44;100.00
64675;BME280;51090;51.512;11.332;2023-01-30T00:21:01;99342.06;;;3.46;100.00
64675;BME280;51090;51.512;11.332;2023-01-30T00:23:30;99332.44;;;3.47;100.00
64675;BME280;51090;51.512;11.332;2023-01-30T00:25:56;99334.59;;;3.52;100.00
64675;BME280;51090;51.512;11.332;2023-01-30T00:28:22;99307.72;;;3.49;100.00
64675;BME280;51090;51.512;11.332;2023-01-30T00:30:53;99302.72;;;3.56;100.00
64675;BME280;51090;51.512;11.332;2023-01-30T00:33:21;99270.16;;;3.49;100.00
64675;BME280;51090;51.512;11.332;2023-01-30T00:35:49;99275.38;;;3.59;100.00
64675;BME280;51090;51.512;11.332;2023-01-30T00:38:16;99277.19;;;3.58;100.00
64675;BME280;51090;51.512;11.332;2023-01-30T00:40:43;99238.16;;;3.55;100.00
64675;BME280;51090;51.512;11.332;2023-01-30T00:43:12;99231.78;;;3.58;100.00
64675;BME280;51090;51.512;11.332;2023-01-30T00:45:57;99240.03;;;3.63;100.00
64675;BME280;51090;51.512;11.332;2023-01-30T00:48:41;99240.03;;;3.63;100.00
64675;BME280;51090;51.512;11.332;2023-01-30T00:51:07;99219.50;;;3.58;100.00
64675;BME280;51090;51.512;11.332;2023-01-30T00:53:33;99202.66;;;3.61;100.00
64675;BME280;51090;51.512;11.332;2023-01-30T00:55:58;99198.78;;;3.65;100.00
64675;BME280;51090;51.512;11.332;2023-01-30T00:58:24;99180.56;;;3.63;100.00
64675;BME280;51090;51.512;11.332;2023-01-30T01:00:51;99188.66;;;3.70;100.00
64675;BME280;51090;51.512;11.332;2023-01-30T01:03:17;99202.59;;;3.70;100.00
64675;BME280;51090;51.512;11.332;2023-01-30T01:05:43;99185.38;;;3.68;100.00
64675;BME280;51090;51.512;11.332;2023-01-30T01:08:10;99177.50;;;3.68;100.00
64675;BME280;51090;51.512;11.332;2023-01-30T01:10:36;99192.41;;;3.67;100.00
64675;BME280;51090;51.512;11.332;2023-01-30T01:13:02;99167.00;;;3.68;100.00
64675;BME280;51090;51.512;11.332;2023-01-30T01:15:28;99153.06;;;3.67;100.00
64675;BME280;51090;51.512;11.332;2023-01-30T01:17:54;99150.47;;;3.67;100.00
64675;BME280;51090;51.512;11.332;2023-01-30T01:20:21;99178.44;;;3.67;100.00
64675;BME280;51090;51.512;11.332;2023-01-30T01:22:48;99169.53;;;3.60;100.00
64675;BME280;51090;51.512;11.332;2023-01-30T01:25:18;99168.44;;;3.62;100.00
64675;BME280;51090;51.512;11.332;2023-01-30T01:27:44;99148.94;;;3.65;100.00
64675;BME280;51090;51.512;11.332;2023-01-30T01:30:11;99141.09;;;3.65;100.00
64675;BME280;51090;51.512;11.332;2023-01-30T01:32:37;99139.97;;;3.67;100.00
64675;BME280;51090;51.512;11.332;2023-01-30T01:35:03;99152.97;;;3.59;100.00
64675;BME280;51090;51.512;11.332;2023-01-30T01:37:29;99182.09;;;3.56;100.00
64675;BME280;51090;51.512;11.332;2023-01-30T01:39:54;99182.69;;;3.50;100.00
64675;BME280;51090;51.512;11.332;2023-01-30T01:42:39;99165.69;;;3.54;100.00
64675;BME280;51090;51.512;11.332;2023-01-30T01:45:21;99169.09;;;3.64;100.00
64675;BME280;51090;51.512;11.332;2023-01-30T01:48:09;99158.91;;;3.61;100.00
64675;BME280;51090;51.512;11.332;2023-01-30T01:51:03;99154.84;;;3.67;100.00
64675;BME280;51090;51.512;11.332;2023-01-30T01:53:37;99157.47;;;3.67;100.00
64675;BME280;51090;51.512;11.332;2023-01-30T01:56:05;99155.97;;;3.64;100.00
64675;BME280;51090;51.512;11.332;2023-01-30T01:58:42;99142.59;;;3.67;100.00
64675;BME280;51090;51.512;11.332;2023-01-30T02:01:09;99137.19;;;3.69;100.00
64675;BME280;51090;51.512;11.332;2023-01-30T02:03:41;99120.88;;;3.75;100.00
64675;BME280;51090;51.512;11.332;2023-01-30T02:06:10;99110.88;;;3.79;100.00
64675;BME280;51090;51.512;11.332;2023-01-30T02:08:54;99099.13;;;3.83;100.00
64675;BME280;51090;51.512;11.332;2023-01-30T02:14:02;99069.91;;;3.78;100.00
64675;BME280;51090;51.512;11.332;2023-01-30T02:16:28;99058.50;;;3.69;100.00
64675;BME280;51090;51.512;11.332;2023-01-30T02:18:54;99071.91;;;3.66;100.00
64675;BME280;51090;51.512;11.332;2023-01-30T02:22:12;99070.28;;;3.65;100.00
64675;BME280;51090;51.512;11.332;2023-01-30T02:33:50;99022.63;;;3.52;100.00
64675;BME280;51090;51.512;11.332;2023-01-30T02:45:16;99043.75;;;3.32;100.00
64675;BME280;51090;51.512;11.332;2023-01-30T02:48:01;99029.72;;;3.41;100.00
64675;BME280;51090;51.512;11.332;2023-01-30T02:50:40;99019.63;;;3.46;100.00
64675;BME280;51090;51.512;11.332;2023-01-30T02:53:07;99011.16;;;3.53;100.00
64675;BME280;51090;51.512;11.332;2023-01-30T02:55:33;99014.84;;;3.60;100.00
64675;BME280;51090;51.512;11.332;2023-01-30T02:58:02;98986.28;;;3.57;100.00
64675;BME280;51090;51.512;11.332;2023-01-30T03:03:57;98993.22;;;3.84;100.00
64675;BME280;51090;51.512;11.332;2023-01-30T03:07:15;98995.41;;;3.88;100.00
64675;BME280;51090;51.512;11.332;2023-01-30T03:15:38;98996.00;;;3.82;100.00
64675;BME280;51090;51.512;11.332;2023-01-30T03:18:06;98991.22;;;3.78;100.00
64675;BME280;51090;51.512;11.332;2023-01-30T03:20:37;98995.63;;;3.77;100.00
64675;BME280;51090;51.512;11.332;2023-01-30T03:23:04;99005.53;;;3.83;100.00
64675;BME280;51090;51.512;11.332;2023-01-30T03:25:30;98986.50;;;3.81;100.00
64675;BME280;51090;51.512;11.332;2023-01-30T03:27:58;98988.44;;;3.79;100.00
64675;BME280;51090;51.512;11.332;2023-01-30T03:30:25;98995.34;;;3.80;100.00
64675;BME280;51090;51.512;11.332;2023-01-30T03:32:51;99000.28;;;3.83;100.00
64675;BME280;51090;51.512;11.332;2023-01-30T03:35:16;98995.34;;;3.80;100.00
64675;BME280;51090;51.512;11.332;2023-01-30T03:37:45;98978.94;;;3.78;100.00
64675;BME280;51090;51.512;11.332;2023-01-30T03:40:13;98990.28;;;3.87;100.00
64675;BME280;51090;51.512;11.332;2023-01-30T03:42:40;98993.47;;;3.90;100.00
64675;BME280;51090;51.512;11.332;2023-01-30T03:45:07;98988.22;;;3.90;100.00
64675;BME280;51090;51.512;11.332;2023-01-30T03:47:33;98984.47;;;3.93;100.00
64675;BME280;51090;51.512;11.332;2023-01-30T03:49:59;98985.63;;;3.99;100.00
64675;BME280;51090;51.512;11.332;2023-01-30T03:52:24;98987.94;;;4.02;100.00
64675;BME280;51090;51.512;11.332;2023-01-30T03:54:51;98973.53;;;4.06;100.00
64675;BME280;51090;51.512;11.332;2023-01-30T03:57:16;98969.94;;;4.07;100.00
64675;BME280;51090;51.512;11.332;2023-01-30T03:59:42;98979.81;;;4.13;100.00
64675;BME280;51090;51.512;11.332;2023-01-30T04:02:08;98966.97;;;4.02;100.00
64675;BME280;51090;51.512;11.332;2023-01-30T04:04:34;98971.13;;;4.12;100.00
64675;BME280;51090;51.512;11.332;2023-01-30T04:07:00;98961.75;;;4.10;100.00
64675;BME280;51090;51.512;11.332;2023-01-30T04:09:26;98967.69;;;4.12;100.00
64675;BME280;51090;51.512;11.332;2023-01-30T04:11:51;98958.50;;;4.16;100.00
64675;BME280;51090;51.512;11.332;2023-01-30T04:14:17;98949.97;;;4.14;100.00
64675;BME280;51090;51.512;11.332;2023-01-30T04:16:44;98957.53;;;4.17;100.00
64675;BME280;51090;51.512;11.332;2023-01-30T04:19:09;98946.69;;;4.12;100.00
64675;BME280;51090;51.512;11.332;2023-01-30T04:21:35;98947.03;;;4.17;100.00
64675;BME280;51090;51.512;11.332;2023-01-30T04:24:01;98929.50;;;4.18;100.00
64675;BME280;51090;51.512;11.332;2023-01-30T04:26:27;98914.56;;;4.18;100.00
64675;BME280;51090;51.512;11.332;2023-01-30T04:28:52;98889.56;;;4.06;100.00
64675;BME280;51090;51.512;11.332;2023-01-30T04:31:18;98893.56;;;4.18;100.00
64675;BME280;51090;51.512;11.332;2023-01-30T04:33:44;98899.34;;;4.22;100.00
64675;BME280;51090;51.512;11.332;2023-01-30T04:36:10;98888.84;;;4.22;100.00
64675;BME280;51090;51.512;11.332;2023-01-30T04:38:37;98881.13;;;4.20;100.00
64675;BME280;51090;51.512;11.332;2023-01-30T04:41:03;98871.75;;;4.18;100.00
64675;BME280;51090;51.512;11.332;2023-01-30T04:43:30;98868.47;;;4.15;100.00
64675;BME280;51090;51.512;11.332;2023-01-30T04:45:56;98884.03;;;4.09;100.00
64675;BME280;51090;51.512;11.332;2023-01-30T04:48:23;98878.09;;;4.07;100.00
64675;BME280;51090;51.512;11.332;2023-01-30T04:50:50;98891.69;;;4.02;100.00
64675;BME280;51090;51.512;11.332;2023-01-30T04:53:17;98888.25;;;4.02;100.00
64675;BME280;51090;51.512;11.332;2023-01-30T04:55:43;98875.81;;;4.04;100.00
64675;BME280;51090;51.512;11.332;2023-01-30T04:58:08;98884.31;;;4.06;100.00
64675;BME280;51090;51.512;11.332;2023-01-30T05:00:34;98874.13;;;4.03;100.00
64675;BME280;51090;51.512;11.332;2023-01-30T05:03:00;98877.59;;;4.03;100.00
64675;BME280;51090;51.512;11.332;2023-01-30T05:05:26;98879.38;;;4.03;100.00
64675;BME280;51090;51.512;11.332;2023-01-30T05:07:53;98864.47;;;4.03;100.00
64675;BME280;51090;51.512;11.332;2023-01-30T05:10:19;98867.78;;;4.13;100.00
64675;BME280;51090;51.512;11.332;2023-01-30T05:12:45;98835.47;;;4.13;100.00
64675;BME280;51090;51.512;11.332;2023-01-30T05:15:12;98837.50;;;4.19;100.00
64675;BME280;51090;51.512;11.332;2023-01-30T05:17:39;98844.88;;;4.24;100.00
64675;BME280;51090;51.512;11.332;2023-01-30T05:20:07;98831.25;;;4.20;100.00
64675;BME280;51090;51.512;11.332;2023-01-30T05:22:34;98829.44;;;4.21;100.00
64675;BME280;51090;51.512;11.332;2023-01-30T05:24:59;98835.22;;;4.24;100.00
64675;BME280;51090;51.512;11.332;2023-01-30T05:27:25;98825.53;;;4.25;100.00
64675;BME280;51090;51.512;11.332;2023-01-30T05:29:51;98820.28;;;4.25;100.00
64675;BME280;51090;51.512;11.332;2023-01-30T05:32:18;98829.63;;;4.27;100.00
64675;BME280;51090;51.512;11.332;2023-01-30T05:34:44;98825.34;;;4.26;100.00
64675;BME280;51090;51.512;11.332;2023-01-30T05:37:11;98830.47;;;4.28;100.00
64675;BME280;51090;51.512;11.332;2023-01-30T05:39:37;98826.34;;;4.25;100.00
64675;BME280;51090;51.512;11.332;2023-01-30T05:42:04;98825.69;;;4.23;100.00
64675;BME280;51090;51.512;11.332;2023-01-30T05:44:30;98813.91;;;4.27;100.00
64675;BME280;51090;51.512;11.332;2023-01-30T05:46:56;98818.81;;;4.30;100.00
64675;BME280;51090;51.512;11.332;2023-01-30T05:49:22;98817.53;;;4.34;100.00
64675;BME280;51090;51.512;11.332;2023-01-30T05:51:48;98816.22;;;4.39;100.00
64675;BME280;51090;51.512;11.332;2023-01-30T05:54:14;98812.91;;;4.36;100.00
64675;BME280;51090;51.512;11.332;2023-01-30T05:56:40;98806.38;;;4.41;100.00
64675;BME280;51090;51.512;11.332;2023-01-30T05:59:06;98807.38;;;4.40;100.00
64675;BME280;51090;51.512;11.332;2023-01-30T06:01:31;98801.28;;;4.39;100.00
64675;BME280;51090;51.512;11.332;2023-01-30T06:03:58;98795.06;;;4.40;100.00
64675;BME280;51090;51.512;11.332;2023-01-30T06:06:24;98794.72;;;4.43;100.00
64675;BME280;51090;51.512;11.332;2023-01-30T06:08:54;98801.94;;;4.49;100.00
64675;BME280;51090;51.512;11.332;2023-01-30T06:11:21;98799.84;;;4.45;100.00
64675;BME280;51090;51.512;11.332;2023-01-30T06:13:47;98792.09;;;4.43;100.00
64675;BME280;51090;51.512;11.332;2023-01-30T06:16:15;98799.50;;;4.48;100.00
64675;BME280;51090;51.512;11.332;2023-01-30T06:18:42;98800.78;;;4.44;100.00
64675;BME280;51090;51.512;11.332;2023-01-30T06:21:08;98803.28;;;4.45;100.00
64675;BME280;51090;51.512;11.332;2023-01-30T06:23:34;98785.03;;;4.35;100.00
64675;BME280;51090;51.512;11.332;2023-01-30T06:26:00;98798.16;;;4.44;100.00
64675;BME280;51090;51.512;11.332;2023-01-30T06:28:27;98798.84;;;4.46;100.00
64675;BME280;51090;51.512;11.332;2023-01-30T06:30:53;98800.31;;;4.48;100.00
64675;BME280;51090;51.512;11.332;2023-01-30T06:33:19;98790.81;;;4.47;100.00
64675;BME280;51090;51.512;11.332;2023-01-30T06:35:48;98807.72;;;4.53;100.00
64675;BME280;51090;51.512;11.332;2023-01-30T06:38:14;98803.44;;;4.52;100.00
64675;BME280;51090;51.512;11.332;2023-01-30T06:40:44;98812.31;;;4.59;100.00
64675;BME280;51090;51.512;11.332;2023-01-30T06:43:10;98812.31;;;4.59;100.00
64675;BME280;51090;51.512;11.332;2023-01-30T06:45:36;98808.06;;;4.58;100.00
64675;BME280;51090;51.512;11.332;2023-01-30T06:48:02;98801.31;;;4.55;100.00
64675;BME280;51090;51.512;11.332;2023-01-30T06:50:29;98801.31;;;4.55;100.00
64675;BME280;51090;51.512;11.332;2023-01-30T06:52:57;98810.53;;;4.76;100.00
64675;BME280;51090;51.512;11.332;2023-01-30T06:55:25;98809.56;;;4.93;100.00
64675;BME280;51090;51.512;11.332;2023-01-30T06:58:05;98804.47;;;5.24;100.00
64675;BME280;51090;51.512;11.332;2023-01-30T07:00:31;98798.88;;;5.19;100.00
64675;BME280;51090;51.512;11.332;2023-01-30T07:02:58;98796.09;;;5.13;100.00
64675;BME280;51090;51.512;11.332;2023-01-30T07:05:23;98786.91;;;5.09;100.00
64675;BME280;51090;51.512;11.332;2023-01-30T07:07:49;98788.03;;;4.98;100.00
64675;BME280;51090;51.512;11.332;2023-01-30T07:10:15;98793.63;;;5.03;100.00
64675;BME280;51090;51.512;11.332;2023-01-30T07:12:41;98785.59;;;4.96;100.00
64675;BME280;51090;51.512;11.332;2023-01-30T07:15:07;98787.06;;;4.99;100.00
64675;BME280;51090;51.512;11.332;2023-01-30T07:17:33;98782.63;;;4.99;100.00
64675;BME280;51090;51.512;11.332;2023-01-30T07:19:59;98786.41;;;4.97;100.00
64675;BME280;51090;51.512;11.332;2023-01-30T07:22:24;98788.69;;;5.00;100.00
64675;BME280;51090;51.512;11.332;2023-01-30T07:24:50;98773.94;;;4.99;100.00
64675;BME280;51090;51.512;11.332;2023-01-30T07:27:16;98793.47;;;5.05;100.00
64675;BME280;51090;51.512;11.332;2023-01-30T07:29:42;98778.53;;;4.97;100.00
64675;BME280;51090;51.512;11.332;2023-01-30T07:32:15;98794.47;;;5.04;100.00
64675;BME280;51090;51.512;11.332;2023-01-30T07:34:42;98781.13;;;5.05;100.00
64675;BME280;51090;51.512;11.332;2023-01-30T07:37:08;98784.59;;;5.14;100.00
64675;BME280;51090;51.512;11.332;2023-01-30T07:39:34;98784.25;;;5.17;100.00
64675;BME280;51090;51.512;11.332;2023-01-30T07:42:00;98788.72;;;5.16;100.00
64675;BME280;51090;51.512;11.332;2023-01-30T07:44:26;98781.97;;;5.22;100.00
64675;BME280;51090;51.512;11.332;2023-01-30T07:46:52;98766.53;;;5.19;100.00
64675;BME280;51090;51.512;11.332;2023-01-30T07:49:18;98779.81;;;5.26;100.00
64675;BME280;51090;51.512;11.332;2023-01-30T07:51:43;98782.91;;;5.29;100.00
64675;BME280;51090;51.512;11.332;2023-01-30T07:54:09;98781.44;;;5.35;100.00
64675;BME280;51090;51.512;11.332;2023-01-30T07:56:35;98780.28;;;5.37;100.00
64675;BME280;51090;51.512;11.332;2023-01-30T07:59:00;98784.69;;;5.37;100.00
64675;BME280;51090;51.512;11.332;2023-01-30T08:01:27;98787.34;;;5.45;100.00
64675;BME280;51090;51.512;11.332;2023-01-30T08:03:53;98795.03;;;5.46;100.00
64675;BME280;51090;51.512;11.332;2023-01-30T08:06:19;98776.13;;;5.51;100.00
64675;BME280;51090;51.512;11.332;2023-01-30T08:08:44;98780.41;;;5.52;100.00
64675;BME280;51090;51.512;11.332;2023-01-30T08:11:10;98792.38;;;5.55;100.00
64675;BME280;51090;51.512;11.332;2023-01-30T08:13:36;98794.41;;;5.53;100.00
64675;BME280;51090;51.512;11.332;2023-01-30T08:16:04;98781.03;;;5.62;100.00
64675;BME280;51090;51.512;11.332;2023-01-30T08:18:32;98769.84;;;5.68;100.00
64675;BME280;51090;51.512;11.332;2023-01-30T08:21:01;98750.59;;;5.76;100.00
64675;BME280;51090;51.512;11.332;2023-01-30T08:23:27;98764.41;;;5.70;100.00
64675;BME280;51090;51.512;11.332;2023-01-30T08:25:58;98757.34;;;5.71;100.00
64675;BME280;51090;51.512;11.332;2023-01-30T08:28:25;98761.66;;;5.63;100.00
64675;BME280;51090;51.512;11.332;2023-01-30T08:30:51;98784.00;;;5.59;100.00
64675;BME280;51090;51.512;11.332;2023-01-30T08:33:18;98804.69;;;5.62;100.00
64675;BME280;51090;51.512;11.332;2023-01-30T08:35:44;98794.19;;;5.62;100.00
64675;BME280;51090;51.512;11.332;2023-01-30T08:38:10;98794.72;;;5.58;100.00
64675;BME280;51090;51.512;11.332;2023-01-30T08:40:36;98800.94;;;5.57;100.00
64675;BME280;51090;51.512;11.332;2023-01-30T08:43:03;98788.94;;;5.54;100.00
64675;BME280;51090;51.512;11.332;2023-01-30T08:45:29;98796.53;;;5.49;100.00
64675;BME280;51090;51.512;11.332;2023-01-30T08:48:03;98796.50;;;5.65;100.00
64675;BME280;51090;51.512;11.332;2023-01-30T08:50:31;98790.88;;;5.68;100.00
64675;BME280;51090;51.512;11.332;2023-01-30T08:53:06;98794.81;;;5.81;100.00
64675;BME280;51090;51.512;11.332;2023-01-30T08:55:33;98788.53;;;5.82;100.00
64675;BME280;51090;51.512;11.332;2023-01-30T08:57:59;98780.34;;;5.77;100.00
64675;BME280;51090;51.512;11.332;2023-01-30T09:00:26;98775.72;;;5.79;100.00
64675;BME280;51090;51.512;11.332;2023-01-30T09:02:56;98781.81;;;5.79;100.00
64675;BME280;51090;51.512;11.332;2023-01-30T09:05:23;98781.97;;;5.78;100.00
64675;BME280;51090;51.512;11.332;2023-01-30T09:07:49;98773.41;;;5.84;100.00
64675;BME280;51090;51.512;11.332;2023-01-30T09:10:16;98766.97;;;5.86;100.00
64675;BME280;51090;51.512;11.332;2023-01-30T09:12:42;98779.63;;;5.99;100.00
64675;BME280;51090;51.512;11.332;2023-01-30T09:15:09;98787.22;;;5.86;100.00
64675;BME280;51090;51.512;11.332;2023-01-30T09:17:35;98766.84;;;5.80;100.00
64675;BME280;51090;51.512;11.332;2023-01-30T09:20:05;98772.44;;;5.77;100.00
64675;BME280;51090;51.512;11.332;2023-01-30T09:22:30;98759.63;;;5.74;100.00
64675;BME280;51090;51.512;11.332;2023-01-30T09:24:56;98757.44;;;5.85;100.00
64675;BME280;51090;51.512;11.332;2023-01-30T09:27:23;98760.19;;;6.00;100.00
64675;BME280;51090;51.512;11.332;2023-01-30T09:29:49;98747.84;;;6.01;100.00
64675;BME280;51090;51.512;11.332;2023-01-30T09:32:15;98747.13;;;6.15;100.00
64675;BME280;51090;51.512;11.332;2023-01-30T09:34:41;98757.81;;;6.22;100.00
64675;BME280;51090;51.512;11.332;2023-01-30T09:37:06;98748.25;;;6.21;100.00
64675;BME280;51090;51.512;11.332;2023-01-30T09:39:32;98729.91;;;6.04;100.00
64675;BME280;51090;51.512;11.332;2023-01-30T09:42:23;98736.69;;;5.99;100.00
64675;BME280;51090;51.512;11.332;2023-01-30T09:48:12;98756.31;;;5.80;100.00
64675;BME280;51090;51.512;11.332;2023-01-30T09:54:27;98747.59;;;5.79;100.00
64675;BME280;51090;51.512;11.332;2023-01-30T09:57:07;98759.75;;;5.80;100.00
64675;BME280;51090;51.512;11.332;2023-01-30T09:59:56;98767.03;;;5.70;100.00
64675;BME280;51090;51.512;11.332;2023-01-30T10:05:23;98777.34;;;5.24;100.00
64675;BME280;51090;51.512;11.332;2023-01-30T10:08:29;98775.56;;;5.16;100.00
64675;BME280;51090;51.512;11.332;2023-01-30T10:19:56;98773.44;;;5.76;100.00
64675;BME280;51090;51.512;11.332;2023-01-30T10:22:48;98776.00;;;5.92;100.00
64675;BME280;51090;51.512;11.332;2023-01-30T10:30:48;98754.56;;;6.12;100.00
64675;BME280;51090;51.512;11.332;2023-01-30T10:33:37;98734.97;;;6.14;100.00
64675;BME280;51090;51.512;11.332;2023-01-30T10:36:13;98739.19;;;6.23;100.00
64675;BME280;51090;51.512;11.332;2023-01-30T10:38:50;98741.94;;;6.30;100.00
64675;BME280;51090;51.512;11.332;2023-01-30T10:41:35;98761.22;;;6.53;100.00
64675;BME280;51090;51.512;11.332;2023-01-30T10:44:13;98745.78;;;6.65;100.00
64675;BME280;51090;51.512;11.332;2023-01-30T10:52:19;98759.00;;;6.42;100.00
64675;BME280;51090;51.512;11.332;2023-01-30T10:58:16;98750.66;;;6.30;100.00
64675;BME280;51090;51.512;11.332;2023-01-30T11:03:40;98756.34;;;6.42;100.00
64675;BME280;51090;51.512;11.332;2023-01-30T11:06:21;98739.78;;;6.33;100.00
64675;BME280;51090;51.512;11.332;2023-01-30T11:08:52;98745.25;;;6.24;100.00
64675;BME280;51090;51.512;11.332;2023-01-30T11:11:50;98741.47;;;6.26;100.00
64675;BME280;51090;51.512;11.332;2023-01-30T11:14:16;98724.25;;;6.16;100.00
64675;BME280;51090;51.512;11.332;2023-01-30T11:16:55;98738.66;;;6.28;100.00
64675;BME280;51090;51.512;11.332;2023-01-30T11:19:26;98752.25;;;6.40;100.00
64675;BME280;51090;51.512;11.332;2023-01-30T11:22:01;98747.22;;;6.53;100.00
64675;BME280;51090;51.512;11.332;2023-01-30T11:24:37;98736.56;;;6.46;100.00
64675;BME280;51090;51.512;11.332;2023-01-30T11:29:38;98739.19;;;6.23;100.00
64675;BME280;51090;51.512;11.332;2023-01-30T11:32:11;98731.84;;;6.10;100.00
64675;BME280;51090;51.512;11.332;2023-01-30T11:34:41;98737.00;;;6.04;100.00
64675;BME280;51090;51.512;11.332;2023-01-30T11:37:31;98711.84;;;6.01;100.00
64675;BME280;51090;51.512;11.332;2023-01-30T11:39:57;98733.38;;;6.05;100.00
64675;BME280;51090;51.512;11.332;2023-01-30T11:42:30;98732.84;;;6.09;100.00
64675;BME280;51090;51.512;11.332;2023-01-30T11:44:58;98721.31;;;6.10;100.00
64675;BME280;51090;51.512;11.332;2023-01-30T11:47:27;98699.91;;;6.14;100.00
64675;BME280;51090;51.512;11.332;2023-01-30T11:49:55;98698.75;;;6.16;100.00
64675;BME280;51090;51.512;11.332;2023-01-30T11:52:30;98694.31;;;6.17;100.00
64675;BME280;51090;51.512;11.332;2023-01-30T11:55:01;98701.16;;;6.26;100.00
64675;BME280;51090;51.512;11.332;2023-01-30T11:57:40;98697.28;;;6.37;100.00
64675;BME280;51090;51.512;11.332;2023-01-30T12:00:41;98696.06;;;6.47;100.00
64675;BME280;51090;51.512;11.332;2023-01-30T12:03:15;98684.53;;;6.48;100.00
64675;BME280;51090;51.512;11.332;2023-01-30T12:05:44;98681.19;;;6.54;100.00
64675;BME280;51090;51.512;11.332;2023-01-30T12:10:53;98679.63;;;6.45;100.00
64675;BME280;51090;51.512;11.332;2023-01-30T12:16:04;98678.31;;;6.41;100.00
64675;BME280;51090;51.512;11.332;2023-01-30T12:18:43;98688.03;;;6.41;100.00
64675;BME280;51090;51.512;11.332;2023-01-30T12:21:26;98692.28;;;6.27;100.00
64675;BME280;51090;51.512;11.332;2023-01-30T12:32:40;98673.38;;;5.92;100.00
64675;BME280;51090;51.512;11.332;2023-01-30T12:35:15;98643.97;;;5.88;100.00
64675;BME280;51090;51.512;11.332;2023-01-30T12:38:08;98661.19;;;5.99;100.00
64675;BME280;51090;51.512;11.332;2023-01-30T12:41:02;98659.97;;;6.10;100.00
64675;BME280;51090;51.512;11.332;2023-01-30T12:44:02;98653.19;;;6.16;100.00
64675;BME280;51090;51.512;11.332;2023-01-30T12:50:02;98663.25;;;6.12;100.00
64675;BME280;51090;51.512;11.332;2023-01-30T12:53:05;98669.97;;;6.15;100.00
64675;BME280;51090;51.512;11.332;2023-01-30T13:07:16;98616.72;;;6.27;100.00
64675;BME280;51090;51.512;11.332;2023-01-30T13:10:27;98647.22;;;6.45;100.00
64675;BME280;51090;51.512;11.332;2023-01-30T13:16:11;98646.63;;;6.35;100.00
64675;BME280;51090;51.512;11.332;2023-01-30T13:21:36;98637.44;;;6.30;100.00
64675;BME280;51090;51.512;11.332;2023-01-30T13:26:57;98611.84;;;6.39;100.00
64675;BME280;51090;51.512;11.332;2023-01-30T13:29:32;98570.44;;;6.33;100.00
64675;BME280;51090;51.512;11.332;2023-01-30T13:32:04;98620.22;;;6.58;100.00
64675;BME280;51090;51.512;11.332;2023-01-30T13:34:39;98648.81;;;6.84;100.00
64675;BME280;51090;51.512;11.332;2023-01-30T13:37:10;98660.63;;;6.88;100.00
64675;BME280;51090;51.512;11.332;2023-01-30T13:40:18;98658.88;;;6.80;100.00
64675;BME280;51090;51.512;11.332;2023-01-30T13:43:16;98645.91;;;6.93;100.00
64675;BME280;51090;51.512;11.332;2023-01-30T13:45:45;98625.03;;;7.07;100.00
64675;BME280;51090;51.512;11.332;2023-01-30T13:51:26;98702.44;;;6.76;100.00
64675;BME280;51090;51.512;11.332;2023-01-30T14:02:27;98705.59;;;6.48;100.00
64675;BME280;51090;51.512;11.332;2023-01-30T14:04:55;98707.94;;;6.20;100.00
64675;BME280;51090;51.512;11.332;2023-01-30T14:07:38;98725.69;;;5.87;100.00
64675;BME280;51090;51.512;11.332;2023-01-30T14:12:42;98750.69;;;5.43;100.00
64675;BME280;51090;51.512;11.332;2023-01-30T14:17:57;98753.88;;;4.98;100.00
64675;BME280;51090;51.512;11.332;2023-01-30T14:20:30;98743.06;;;4.85;100.00
64675;BME280;51090;51.512;11.332;2023-01-30T14:25:59;98740.44;;;4.76;100.00
64675;BME280;51090;51.512;11.332;2023-01-30T14:30:58;98730.75;;;4.77;100.00
64675;BME280;51090;51.512;11.332;2023-01-30T14:38:39;98739.91;;;5.14;100.00
64675;BME280;51090;51.512;11.332;2023-01-30T14:51:27;98769.59;;;5.31;100.00
64675;BME280;51090;51.512;11.332;2023-01-30T14:57:00;98772.25;;;5.22;100.00
64675;BME280;51090;51.512;11.332;2023-01-30T15:07:23;98788.88;;;5.07;100.00
64675;BME280;51090;51.512;11.332;2023-01-30T15:16:39;98789.03;;;4.97;100.00
64675;BME280;51090;51.512;11.332;2023-01-30T15:19:37;98804.47;;;4.92;100.00
64675;BME280;51090;51.512;11.332;2023-01-30T15:22:16;98828.94;;;4.92;100.00
64675;BME280;51090;51.512;11.332;2023-01-30T15:27:54;98801.66;;;4.85;100.00
64675;BME280;51090;51.512;11.332;2023-01-30T15:30:56;98798.22;;;4.76;100.00
64675;BME280;51090;51.512;11.332;2023-01-30T15:33:25;98797.88;;;4.63;100.00
64675;BME280;51090;51.512;11.332;2023-01-30T15:35:52;98827.75;;;4.62;100.00
64675;BME280;51090;51.512;11.332;2023-01-30T15:38:24;98831.34;;;4.53;100.00
64675;BME280;51090;51.512;11.332;2023-01-30T15:41:04;98847.78;;;4.55;100.00
64675;BME280;51090;51.512;11.332;2023-01-30T15:43:41;98860.56;;;4.58;100.00
64675;BME280;51090;51.512;11.332;2023-01-30T15:51:44;98894.75;;;4.74;100.00
64675;BME280;51090;51.512;11.332;2023-01-30T15:54:16;98919.19;;;4.75;100.00
64675;BME280;51090;51.512;11.332;2023-01-30T15:56:46;98873.91;;;4.73;100.00
64675;BME280;51090;51.512;11.332;2023-01-30T15:59:33;98898.81;;;4.61;100.00